createdAt,value
2018-03-08T05:02:35.004Z,20.02
2018-03-08T05:05:01.751Z,19.00
2018-03-08T05:07:28.554Z,21.95
2018-03-08T05:09:55.381Z,23.60
2018-03-08T05:12:22.162Z,19.67
2018-03-08T05:14:48.939Z,19.77
2018-03-08T05:17:15.701Z,23.17
2018-03-08T05:19:42.832Z,23.07
2018-03-08T05:22:09.653Z,22.87
2018-03-08T05:24:36.449Z,24.48
2018-03-08T05:27:03.229Z,24.40
2018-03-08T05:29:29.996Z,22.20
2018-03-08T05:31:56.967Z,23.23
2018-03-08T05:34:23.756Z,21.03
2018-03-08T05:36:50.896Z,23.80
2018-03-08T05:39:17.662Z,21.58
2018-03-08T05:41:44.420Z,23.80
2018-03-08T05:44:11.204Z,23.10
2018-03-08T05:46:38.050Z,28.15
2018-03-08T05:49:04.817Z,24.97
2018-03-08T05:51:32.122Z,28.83
2018-03-08T05:53:59.672Z,25.65
2018-03-08T05:56:26.438Z,28.17
2018-03-08T05:58:53.219Z,25.93
2018-03-08T06:01:20.962Z,25.65
2018-03-08T06:03:48.491Z,32.03
2018-03-08T06:06:15.318Z,24.30
2018-03-08T06:08:42.102Z,25.27
2018-03-08T06:11:08.947Z,21.83
2018-03-08T06:13:35.711Z,23.80
2018-03-08T06:16:02.489Z,23.00
2018-03-08T06:18:29.296Z,26.77
2018-03-08T06:20:56.111Z,27.25
2018-03-08T06:23:22.929Z,26.40
2018-03-08T06:25:49.720Z,28.30
2018-03-08T06:28:16.501Z,26.37
2018-03-08T06:30:43.282Z,22.77
2018-03-08T06:33:10.102Z,28.87
2018-03-08T06:35:36.968Z,28.50
2018-03-08T06:38:04.021Z,27.45
2018-03-08T06:40:30.813Z,30.15
2018-03-08T06:42:57.581Z,23.20
2018-03-08T06:45:24.361Z,25.73
2018-03-08T06:47:51.511Z,23.13
2018-03-08T06:50:18.288Z,26.40
2018-03-08T06:52:45.031Z,31.10
2018-03-08T06:55:12.659Z,25.90
2018-03-08T06:57:39.466Z,28.90
2018-03-08T07:00:06.934Z,28.00
2018-03-08T07:02:33.702Z,31.17
2018-03-08T07:05:00.684Z,23.23
2018-03-08T07:07:27.522Z,30.27
2018-03-08T07:09:54.295Z,29.50
2018-03-08T07:12:21.762Z,29.90
2018-03-08T07:14:48.536Z,30.60
2018-03-08T07:17:15.291Z,27.17
2018-03-08T07:19:42.109Z,28.45
2018-03-08T07:22:08.902Z,30.10
2018-03-08T07:24:35.730Z,30.33
2018-03-08T07:27:02.487Z,28.10
2018-03-08T07:29:29.247Z,32.07
2018-03-08T07:31:56.259Z,30.20
2018-03-08T07:34:23.048Z,27.90
2018-03-08T07:36:50.380Z,29.43
2018-03-08T07:39:17.167Z,29.23
2018-03-08T07:41:44.592Z,35.87
2018-03-08T07:44:11.357Z,34.83
2018-03-08T07:46:38.482Z,32.17
2018-03-08T07:49:05.309Z,33.27
2018-03-08T07:51:32.063Z,27.30
2018-03-08T07:53:58.846Z,24.67
2018-03-08T07:56:25.654Z,33.10
2018-03-08T07:58:52.451Z,25.57
2018-03-08T08:01:20.014Z,35.40
2018-03-08T08:03:46.767Z,31.40
2018-03-08T08:06:19.474Z,36.27
2018-03-08T08:08:52.158Z,32.93
2018-03-08T08:11:19.008Z,32.67
2018-03-08T08:13:45.777Z,34.80
2018-03-08T08:16:12.545Z,35.90
2018-03-08T08:18:39.310Z,29.77
2018-03-08T08:21:06.064Z,34.37
2018-03-08T08:23:32.926Z,34.50
2018-03-08T08:26:00.815Z,33.20
2018-03-08T08:28:27.572Z,27.20
2018-03-08T08:30:54.324Z,28.67
2018-03-08T08:33:21.071Z,34.23
2018-03-08T08:35:47.881Z,23.80
2018-03-08T08:38:14.632Z,31.87
2018-03-08T08:40:41.434Z,29.13
2018-03-08T08:43:08.196Z,35.70
2018-03-08T08:45:34.979Z,18.97
2018-03-08T08:48:02.142Z,33.90
2018-03-08T08:50:28.945Z,31.77
2018-03-08T08:52:55.705Z,29.97
2018-03-08T08:55:22.470Z,31.40
2018-03-08T08:57:49.434Z,36.90
2018-03-08T09:00:16.268Z,28.80
2018-03-08T09:02:43.046Z,24.93
2018-03-08T09:05:10.123Z,37.57
2018-03-08T09:07:36.948Z,33.10
2018-03-08T09:10:03.724Z,33.53
2018-03-08T09:12:30.530Z,41.70
2018-03-08T09:14:57.280Z,30.93
2018-03-08T09:17:24.032Z,32.07
2018-03-08T09:19:50.911Z,22.20
2018-03-08T09:22:17.673Z,30.87
2018-03-08T09:24:44.458Z,21.83
2018-03-08T09:27:11.224Z,27.90
2018-03-08T09:29:37.997Z,26.50
2018-03-08T09:32:04.760Z,26.67
2018-03-08T09:34:31.678Z,27.20
2018-03-08T09:36:58.507Z,30.53
2018-03-08T09:39:25.288Z,25.50
2018-03-08T09:41:52.047Z,25.70
2018-03-08T09:44:18.856Z,27.17
2018-03-08T09:46:45.626Z,20.97
2018-03-08T09:49:12.672Z,28.57
2018-03-08T09:51:39.436Z,26.97
2018-03-08T09:54:06.225Z,20.10
2018-03-08T09:56:33.726Z,21.27
2018-03-08T09:59:01.287Z,21.43
2018-03-08T10:01:29.035Z,15.67
2018-03-08T10:03:55.806Z,23.80
2018-03-08T10:06:22.592Z,22.10
2018-03-08T10:08:50.320Z,21.03
2018-03-08T10:11:17.101Z,20.60
2018-03-08T10:13:43.901Z,19.03
2018-03-08T10:16:10.720Z,12.03
2018-03-08T10:18:37.918Z,11.93
2018-03-08T10:21:04.778Z,20.43
2018-03-08T10:23:31.535Z,20.77
2018-03-08T10:25:58.279Z,19.80
2018-03-08T10:28:25.067Z,21.50
2018-03-08T10:30:51.844Z,17.80
2018-03-08T10:33:18.660Z,21.30
2018-03-08T10:35:45.459Z,7.07
2018-03-08T10:38:12.240Z,17.70
2018-03-08T10:43:05.890Z,17.67
2018-03-08T10:45:32.658Z,18.67
2018-03-08T10:47:59.406Z,17.30
2018-03-08T10:50:26.166Z,14.77
2018-03-08T10:52:52.965Z,22.50
2018-03-08T10:55:19.830Z,19.57
2018-03-08T10:57:47.307Z,19.70
2018-03-08T11:00:14.098Z,21.10
2018-03-08T11:02:46.423Z,17.00
2018-03-08T11:05:13.203Z,17.83
2018-03-08T11:07:39.982Z,17.37
2018-03-08T11:10:06.744Z,18.83
2018-03-08T11:12:33.529Z,12.40
2018-03-08T11:15:00.353Z,15.77
2018-03-08T11:17:27.123Z,16.37
2018-03-08T11:19:53.902Z,9.47
2018-03-08T11:22:20.668Z,19.03
2018-03-08T11:24:47.427Z,22.80
2018-03-08T11:27:14.231Z,19.23
2018-03-08T11:29:41.030Z,18.50
2018-03-08T11:32:07.814Z,21.33
2018-03-08T11:34:34.700Z,15.50
2018-03-08T11:37:01.478Z,19.90
2018-03-08T11:39:28.264Z,18.47
2018-03-08T11:41:55.046Z,11.40
2018-03-08T11:44:21.796Z,26.83
2018-03-08T11:46:48.570Z,20.83
2018-03-08T11:49:15.330Z,22.50
2018-03-08T11:51:42.122Z,20.17
2018-03-08T11:54:08.887Z,23.37
2018-03-08T11:56:35.668Z,19.20
2018-03-08T11:59:02.438Z,23.27
2018-03-08T12:01:29.216Z,20.73
2018-03-08T12:03:56.018Z,20.40
2018-03-08T12:06:22.804Z,23.97
2018-03-08T12:08:49.594Z,17.40
2018-03-08T12:11:16.352Z,23.13
2018-03-08T12:13:43.461Z,20.30
2018-03-08T12:16:10.264Z,26.40
2018-03-08T12:18:37.066Z,17.97
2018-03-08T12:21:03.839Z,22.00
2018-03-08T12:23:30.593Z,23.17
2018-03-08T12:25:57.374Z,21.10
2018-03-08T12:28:24.199Z,22.90
2018-03-08T12:30:51.002Z,23.20
2018-03-08T12:33:17.785Z,24.00
2018-03-08T12:35:44.583Z,17.53
2018-03-08T12:38:11.999Z,22.90
2018-03-08T12:40:38.831Z,24.53
2018-03-08T12:43:05.603Z,22.27
2018-03-08T12:45:32.364Z,24.83
2018-03-08T12:47:59.146Z,24.20
2018-03-08T12:50:26.111Z,22.07
2018-03-08T12:52:52.884Z,18.57
2018-03-08T12:55:19.782Z,13.93
2018-03-08T12:57:46.555Z,15.00
2018-03-08T13:00:13.316Z,19.53
2018-03-08T13:02:40.063Z,19.77
2018-03-08T13:05:06.881Z,19.03
2018-03-08T13:07:33.631Z,19.57
2018-03-08T13:10:00.402Z,16.90
2018-03-08T13:12:27.179Z,12.87
2018-03-08T13:14:53.933Z,19.20
2018-03-08T13:17:20.799Z,18.17
2018-03-08T13:19:47.574Z,15.90
2018-03-08T13:22:14.342Z,14.27
2018-03-08T13:24:41.114Z,14.20
2018-03-08T13:27:07.891Z,16.00
2018-03-08T13:29:35.526Z,15.17
2018-03-08T13:32:02.325Z,15.87
2018-03-08T13:34:29.105Z,14.20
2018-03-08T13:36:55.874Z,17.20
2018-03-08T13:39:22.624Z,14.60
2018-03-08T13:41:49.407Z,15.23
2018-03-08T13:44:16.191Z,13.97
2018-03-08T13:46:42.998Z,15.90
2018-03-08T13:49:15.582Z,11.93
2018-03-08T13:51:42.333Z,13.23
2018-03-08T13:54:10.063Z,15.17
2018-03-08T13:56:36.855Z,13.67
2018-03-08T13:59:03.627Z,14.50
2018-03-08T14:01:30.394Z,14.50
2018-03-08T14:03:57.168Z,11.07
2018-03-08T14:06:24.019Z,11.80
2018-03-08T14:08:50.780Z,12.90
2018-03-08T14:11:17.545Z,13.80
2018-03-08T14:13:44.294Z,12.20
2018-03-08T14:16:11.077Z,16.17
2018-03-08T14:18:38.668Z,15.10
2018-03-08T14:21:05.445Z,13.27
2018-03-08T14:23:32.192Z,14.93
2018-03-08T14:25:59.014Z,14.10
2018-03-08T14:28:25.790Z,14.03
2018-03-08T14:30:52.582Z,16.60
2018-03-08T14:33:19.350Z,15.80
2018-03-08T14:35:46.104Z,12.63
2018-03-08T14:38:13.690Z,16.50
2018-03-08T14:40:40.444Z,16.77
2018-03-08T14:43:07.355Z,16.03
2018-03-08T14:45:34.122Z,13.73
2018-03-08T14:48:00.970Z,15.90
2018-03-08T14:50:27.724Z,15.70
2018-03-08T14:52:54.488Z,15.83
2018-03-08T14:55:21.321Z,16.73
2018-03-08T14:57:48.281Z,16.57
2018-03-08T15:00:15.062Z,18.43
2018-03-08T15:02:41.831Z,18.80
2018-03-08T15:05:08.610Z,18.93
2018-03-08T15:07:35.426Z,16.53
2018-03-08T15:10:02.196Z,18.10
2018-03-08T15:12:28.959Z,14.90
2018-03-08T15:14:55.736Z,14.50
2018-03-08T15:17:22.510Z,15.53
2018-03-08T15:19:49.352Z,15.73
2018-03-08T15:22:16.127Z,15.90
2018-03-08T15:24:42.908Z,14.20
2018-03-08T15:27:09.685Z,17.90
2018-03-08T15:29:36.443Z,16.37
2018-03-08T15:32:03.254Z,13.10
2018-03-08T15:34:30.005Z,16.03
2018-03-08T15:36:56.769Z,14.60
2018-03-08T15:39:23.528Z,14.80
2018-03-08T15:41:50.302Z,15.70
2018-03-08T15:44:17.102Z,13.77
2018-03-08T15:46:44.609Z,16.87
2018-03-08T15:49:11.399Z,15.37
2018-03-08T15:51:38.145Z,14.60
2018-03-08T15:54:05.353Z,14.60
2018-03-08T15:56:32.192Z,13.90
2018-03-08T15:58:58.965Z,14.57
2018-03-08T16:01:26.073Z,15.70
2018-03-08T16:03:52.840Z,15.37
2018-03-08T16:06:38.523Z,14.67
2018-03-08T16:09:05.580Z,16.20
2018-03-08T16:11:32.352Z,14.97
2018-03-08T16:13:59.148Z,12.40
2018-03-08T16:16:25.921Z,14.57
2018-03-08T16:18:52.719Z,13.07
2018-03-08T16:21:19.541Z,12.97
2018-03-08T16:23:46.320Z,17.03
2018-03-08T16:26:13.075Z,15.30
2018-03-08T16:28:39.895Z,15.10
2018-03-08T16:31:06.657Z,13.27
2018-03-08T16:33:33.482Z,13.33
2018-03-08T16:36:00.285Z,12.93
2018-03-08T16:38:27.184Z,12.97
2018-03-08T16:40:53.939Z,16.17
2018-03-08T16:43:20.688Z,16.00
2018-03-08T16:45:48.531Z,16.43
2018-03-08T16:48:15.673Z,14.57
2018-03-08T16:50:42.441Z,15.10
2018-03-08T16:53:09.686Z,15.27
2018-03-08T16:55:36.938Z,15.20
2018-03-08T16:58:04.121Z,14.90
2018-03-08T17:00:30.898Z,16.20
2018-03-08T17:02:57.711Z,9.77
2018-03-08T17:05:24.488Z,14.50
2018-03-08T17:07:51.273Z,15.40
2018-03-08T17:10:18.119Z,16.00
2018-03-08T17:12:44.895Z,12.03
2018-03-08T17:15:11.673Z,16.10
2018-03-08T17:17:38.426Z,13.17
2018-03-08T17:20:05.196Z,16.13
2018-03-08T17:22:31.993Z,15.23
2018-03-08T17:24:58.799Z,12.77
2018-03-08T17:27:25.584Z,13.20
2018-03-08T17:29:52.362Z,14.63
2018-03-08T17:32:19.138Z,16.13
2018-03-08T17:34:45.945Z,14.30
2018-03-08T17:37:13.205Z,15.17
2018-03-08T17:39:39.974Z,12.50
2018-03-08T17:42:06.732Z,15.33
2018-03-08T17:44:33.526Z,12.27
2018-03-08T17:47:00.315Z,11.53
2018-03-08T17:49:27.094Z,13.40
2018-03-08T17:51:54.335Z,13.53
2018-03-08T17:54:21.106Z,12.50
2018-03-08T17:56:47.881Z,14.80
2018-03-08T17:59:14.704Z,12.60
2018-03-08T18:01:41.482Z,10.63
2018-03-08T18:04:08.304Z,11.43
2018-03-08T18:06:35.083Z,12.63
2018-03-08T18:09:02.232Z,10.90
2018-03-08T18:11:29.032Z,11.07
2018-03-08T18:13:55.817Z,11.27
2018-03-08T18:16:23.050Z,10.97
2018-03-08T18:18:49.830Z,10.00
2018-03-08T18:21:16.587Z,9.20
2018-03-08T18:23:43.375Z,6.60
2018-03-08T18:26:10.132Z,7.50
2018-03-08T18:28:36.921Z,6.20
2018-03-08T18:31:03.724Z,8.67
2018-03-08T18:33:30.513Z,6.70
2018-03-08T18:35:57.327Z,4.43
2018-03-08T18:38:24.067Z,6.07
2018-03-08T18:40:50.852Z,5.80
2018-03-08T18:43:17.608Z,5.83
2018-03-08T18:45:45.002Z,5.20
2018-03-08T18:48:12.067Z,5.30
2018-03-08T18:50:38.828Z,4.87
2018-03-08T18:53:05.646Z,5.20
2018-03-08T18:55:32.417Z,4.87
2018-03-08T18:58:05.192Z,4.77
2018-03-08T19:00:32.616Z,3.80
2018-03-08T19:02:59.353Z,5.03
2018-03-08T19:05:26.114Z,5.17
2018-03-08T19:07:52.934Z,9.75
2018-03-08T19:10:19.706Z,7.03
2018-03-08T19:12:46.484Z,7.90
2018-03-08T19:15:13.290Z,5.77
2018-03-08T19:17:40.034Z,8.33
2018-03-08T19:20:06.819Z,7.90
2018-03-08T19:22:33.623Z,7.97
2018-03-08T19:25:00.387Z,6.90
2018-03-08T19:27:27.162Z,8.10
2018-03-08T19:29:53.912Z,7.97
2018-03-08T19:32:20.693Z,7.33
2018-03-08T19:34:48.186Z,7.10
2018-03-08T19:37:14.958Z,7.90
2018-03-08T19:39:42.461Z,8.57
2018-03-08T19:42:09.246Z,7.60
2018-03-08T19:44:36.004Z,6.37
2018-03-08T19:47:02.778Z,8.20
2018-03-08T19:49:29.539Z,8.67
2018-03-08T19:51:56.508Z,7.80
2018-03-08T19:54:23.304Z,7.00
2018-03-08T19:56:50.134Z,8.37
2018-03-08T19:59:16.895Z,8.83
2018-03-08T20:01:43.645Z,8.80
2018-03-08T20:04:11.092Z,8.17
2018-03-08T20:06:37.883Z,7.10
2018-03-08T20:09:05.228Z,7.20
2018-03-08T20:11:32.181Z,7.67
2018-03-08T20:13:59.240Z,7.83
2018-03-08T20:16:26.805Z,7.80
2018-03-08T20:18:53.590Z,10.33
2018-03-08T20:21:20.405Z,8.60
2018-03-08T20:23:47.883Z,6.60
2018-03-08T20:26:14.766Z,8.17
2018-03-08T20:28:41.524Z,8.47
2018-03-08T20:31:09.017Z,8.97
2018-03-08T20:33:35.823Z,9.70
2018-03-08T20:36:02.604Z,8.80
2018-03-08T20:38:29.394Z,10.20
2018-03-08T20:40:56.315Z,9.93
2018-03-08T20:43:23.222Z,8.67
2018-03-08T20:45:50.098Z,9.30
2018-03-08T20:48:17.159Z,9.17
2018-03-08T20:50:43.927Z,9.90
2018-03-08T20:53:10.695Z,8.40
2018-03-08T20:55:38.600Z,10.30
2018-03-08T20:58:05.384Z,9.27
2018-03-08T21:00:32.509Z,9.70
2018-03-08T21:02:59.272Z,10.07
2018-03-08T21:05:26.055Z,9.57
2018-03-08T21:07:52.816Z,11.20
2018-03-08T21:10:19.720Z,12.70
2018-03-08T21:12:46.477Z,11.40
2018-03-08T21:15:13.551Z,11.60
2018-03-08T21:17:40.309Z,12.20
2018-03-08T21:20:07.103Z,10.50
2018-03-08T21:22:33.898Z,12.27
2018-03-08T21:25:00.938Z,11.23
2018-03-08T21:27:27.698Z,11.30
2018-03-08T21:29:54.470Z,19.57
2018-03-08T21:32:21.251Z,11.90
2018-03-08T21:34:48.052Z,11.30
2018-03-08T21:37:14.794Z,11.83
2018-03-08T21:39:41.555Z,10.43
2018-03-08T21:42:08.290Z,7.97
2018-03-08T21:44:35.035Z,12.20
2018-03-08T21:47:01.835Z,8.77
2018-03-08T21:49:28.722Z,9.33
2018-03-08T21:51:55.495Z,10.20
2018-03-08T21:54:22.296Z,6.80
2018-03-08T21:56:49.091Z,10.50
2018-03-08T22:01:48.905Z,10.57
2018-03-08T22:04:15.662Z,11.30
2018-03-08T22:06:42.417Z,8.90
2018-03-08T22:09:09.177Z,12.10
2018-03-08T22:11:35.979Z,9.20
2018-03-08T22:14:02.775Z,8.77
2018-03-08T22:16:29.560Z,13.27
2018-03-08T22:18:56.328Z,11.47
2018-03-08T22:21:23.089Z,10.23
2018-03-08T22:23:50.089Z,11.10
2018-03-08T22:26:16.862Z,9.03
2018-03-08T22:28:43.639Z,11.30
2018-03-08T22:31:10.414Z,11.80
2018-03-08T22:33:37.177Z,11.80
2018-03-08T22:36:03.969Z,11.23
2018-03-08T22:38:30.723Z,12.83
2018-03-08T22:40:57.462Z,12.63
2018-03-08T22:43:24.215Z,10.80
2018-03-08T22:45:50.996Z,15.60
2018-03-08T22:48:17.818Z,10.73
2018-03-08T22:50:44.589Z,10.50
2018-03-08T22:53:11.368Z,13.17
2018-03-08T22:55:38.131Z,10.97
2018-03-08T22:58:04.903Z,10.20
2018-03-08T23:00:32.311Z,12.47
2018-03-08T23:03:04.624Z,11.93
2018-03-08T23:05:31.423Z,10.30
2018-03-08T23:07:58.163Z,8.70
2018-03-08T23:10:25.641Z,11.70
2018-03-08T23:12:52.391Z,10.00
2018-03-08T23:15:19.135Z,8.73
2018-03-08T23:17:45.923Z,10.33
2018-03-08T23:20:12.693Z,10.40
2018-03-08T23:22:39.449Z,10.67
2018-03-08T23:25:06.215Z,8.47
2018-03-08T23:27:32.993Z,10.60
2018-03-08T23:29:59.794Z,9.90
